createdAt,value
2018-04-30T00:00:06.862Z,51.79
2018-04-30T00:00:47.388Z,52.08
2018-04-30T00:01:27.931Z,51.79
2018-04-30T00:02:08.468Z,51.69
2018-04-30T00:02:48.996Z,51.5
2018-04-30T00:03:29.529Z,51.5
2018-04-30T00:04:10.057Z,51.31
2018-04-30T00:04:50.590Z,51.31
2018-04-30T00:05:31.122Z,51.4
2018-04-30T00:06:11.653Z,51.5
2018-04-30T00:06:52.183Z,51.4
2018-04-30T00:07:33.411Z,51.04
2018-04-30T00:08:13.236Z,51.43
2018-04-30T00:08:53.773Z,51.14
2018-04-30T00:09:34.307Z,51.33
2018-04-30T00:10:14.835Z,51.62
2018-04-30T00:10:55.362Z,51.33
2018-04-30T00:11:35.894Z,51.53
2018-04-30T00:12:16.429Z,51.33
2018-04-30T00:12:56.959Z,51.62
2018-04-30T00:13:37.484Z,51.23
2018-04-30T00:14:18.011Z,51.23
2018-04-30T00:14:58.535Z,51.43
2018-04-30T00:15:39.066Z,51.23
2018-04-30T00:16:19.597Z,51.62
2018-04-30T00:17:00.128Z,51.43
2018-04-30T00:17:40.655Z,51.53
2018-04-30T00:18:21.181Z,51.43
2018-04-30T00:19:01.713Z,51.43
2018-04-30T00:19:42.915Z,51.53
2018-04-30T00:20:22.792Z,51.43
2018-04-30T00:21:03.320Z,51.43
2018-04-30T00:21:43.856Z,51.33
2018-04-30T00:22:24.384Z,51.62
2018-04-30T00:23:05.417Z,51.23
2018-04-30T00:23:45.442Z,51.33
2018-04-30T00:24:26.913Z,51.23
2018-04-30T00:25:06.503Z,51.33
2018-04-30T00:25:47.040Z,51.23
2018-04-30T00:26:27.568Z,51.04
2018-04-30T00:27:08.098Z,51.04
2018-04-30T00:27:48.628Z,51.14
2018-04-30T00:28:29.162Z,51.53
2018-04-30T00:29:10.417Z,51.23
2018-04-30T00:29:50.228Z,51.62
2018-04-30T00:30:30.743Z,51.53
2018-04-30T00:31:11.276Z,51.14
2018-04-30T00:31:51.807Z,51.33
2018-04-30T00:32:32.334Z,51.14
2018-04-30T00:33:12.879Z,51.14
2018-04-30T00:33:53.403Z,51.43
2018-04-30T00:34:33.939Z,51.53
2018-04-30T00:35:14.470Z,51.43
2018-04-30T00:35:55.006Z,51.43
2018-04-30T00:36:35.535Z,51.53
2018-04-30T00:37:16.067Z,51.33
2018-04-30T00:37:56.602Z,51.33
2018-04-30T00:38:37.133Z,51.5
2018-04-30T00:39:17.664Z,51.5
2018-04-30T00:39:58.257Z,51.69
2018-04-30T00:40:38.728Z,52.08
2018-04-30T00:41:19.251Z,51.69
2018-04-30T00:41:59.781Z,51.5
2018-04-30T00:42:40.918Z,51.79
2018-04-30T00:43:20.849Z,51.88
2018-04-30T00:44:01.379Z,51.69
2018-04-30T00:44:41.914Z,51.88
2018-04-30T00:45:22.928Z,52.08
2018-04-30T00:46:03.476Z,51.98
2018-04-30T00:46:43.998Z,52.08
2018-04-30T00:47:24.526Z,52.08
2018-04-30T00:48:05.055Z,52.08
2018-04-30T00:48:45.588Z,51.98
2018-04-30T00:49:26.119Z,51.88
2018-04-30T00:50:06.634Z,51.98
2018-04-30T00:50:47.168Z,51.88
2018-04-30T00:51:27.691Z,51.59
2018-04-30T00:52:08.219Z,51.69
2018-04-30T00:52:48.745Z,51.79
2018-04-30T00:53:29.269Z,51.79
2018-04-30T00:54:09.801Z,51.79
2018-04-30T00:54:50.333Z,51.59
2018-04-30T00:55:30.848Z,51.79
2018-04-30T00:56:11.416Z,51.79
2018-04-30T00:56:51.895Z,51.79
2018-04-30T00:57:32.424Z,52.17
2018-04-30T00:58:12.949Z,52.26
2018-04-30T00:58:53.477Z,52.26
2018-04-30T00:59:34.006Z,51.88
2018-04-30T01:00:14.540Z,52.26
2018-04-30T01:00:55.063Z,51.88
2018-04-30T01:01:35.587Z,52.05
2018-04-30T01:02:16.125Z,51.88
2018-04-30T01:02:56.651Z,51.86
2018-04-30T01:03:37.182Z,51.95
2018-04-30T01:04:17.716Z,51.98
2018-04-30T01:04:58.298Z,52.05
2018-04-30T01:05:38.767Z,52.05
2018-04-30T01:06:19.924Z,52.14
2018-04-30T01:07:00.435Z,52.05
2018-04-30T01:07:40.340Z,52.05
2018-04-30T01:08:21.562Z,52.14
2018-04-30T01:09:02.065Z,52.14
2018-04-30T01:09:42.596Z,52.14
2018-04-30T01:10:23.126Z,52.05
2018-04-30T01:11:03.652Z,52.05
2018-04-30T01:11:44.205Z,52.14
2018-04-30T01:12:24.738Z,51.95
2018-04-30T01:13:05.263Z,51.95
2018-04-30T01:13:46.441Z,51.95
2018-04-30T01:14:26.989Z,51.86
2018-04-30T01:15:07.522Z,51.95
2018-04-30T01:15:48.054Z,52.14
2018-04-30T01:16:28.586Z,51.95
2018-04-30T01:17:09.116Z,52.05
2018-04-30T01:17:49.642Z,51.67
2018-04-30T01:18:30.171Z,51.86
2018-04-30T01:19:10.704Z,51.67
2018-04-30T01:19:51.225Z,51.95
2018-04-30T01:20:31.756Z,52.05
2018-04-30T01:21:12.269Z,52.05
2018-04-30T01:21:52.796Z,52.05
2018-04-30T01:22:33.329Z,52.05
2018-04-30T01:23:14.432Z,51.86
2018-04-30T01:23:54.996Z,51.86
2018-04-30T01:24:35.521Z,51.95
2018-04-30T01:25:16.676Z,51.95
2018-04-30T01:25:57.206Z,51.95
2018-04-30T01:26:37.731Z,51.95
2018-04-30T01:27:18.269Z,51.86
2018-04-30T01:27:58.784Z,51.93
2018-04-30T01:28:39.313Z,51.95
2018-04-30T01:29:19.843Z,52.05
2018-04-30T01:30:00.365Z,51.95
2018-04-30T01:30:40.889Z,51.76
2018-04-30T01:31:21.423Z,52.14
2018-04-30T01:32:01.954Z,52.12
2018-04-30T01:32:42.490Z,52.24
2018-04-30T01:33:23.017Z,52.12
2018-04-30T01:34:03.542Z,52.14
2018-04-30T01:34:44.069Z,52.12
2018-04-30T01:35:24.601Z,52.22
2018-04-30T01:36:05.130Z,52.02
2018-04-30T01:36:45.663Z,52.02
2018-04-30T01:37:26.245Z,52.12
2018-04-30T01:38:06.719Z,52.12
2018-04-30T01:38:47.240Z,52.12
2018-04-30T01:39:28.431Z,52.12
2018-04-30T01:40:08.279Z,52.12
2018-04-30T01:40:48.799Z,51.93
2018-04-30T01:41:29.325Z,52.31
2018-04-30T01:42:09.853Z,52.22
2018-04-30T01:42:50.387Z,51.93
2018-04-30T01:43:30.912Z,52.12
2018-04-30T01:44:11.443Z,52.12
2018-04-30T01:44:51.974Z,51.83
2018-04-30T01:45:32.503Z,52.02
2018-04-30T01:46:13.031Z,51.93
2018-04-30T01:46:53.563Z,52.22
2018-04-30T01:47:35.434Z,52.12
2018-04-30T01:48:14.592Z,51.83
2018-04-30T01:48:55.149Z,51.93
2018-04-30T01:49:35.677Z,52.02
2018-04-30T01:50:16.204Z,52.02
2018-04-30T01:50:56.735Z,52.12
2018-04-30T01:51:37.845Z,51.93
2018-04-30T01:52:18.404Z,52.31
2018-04-30T01:52:58.939Z,52.22
2018-04-30T01:53:39.460Z,52.12
2018-04-30T01:54:20.006Z,52.22
2018-04-30T01:55:00.519Z,52.02
2018-04-30T01:55:41.290Z,52.22
2018-04-30T01:56:23.435Z,52.5
2018-04-30T01:57:03.858Z,52.5
2018-04-30T01:57:44.381Z,52.4
2018-04-30T01:58:24.917Z,52.4
2018-04-30T01:59:05.447Z,52.5
2018-04-30T01:59:45.973Z,52.86
2018-04-30T02:00:26.505Z,52.98
2018-04-30T02:01:07.936Z,52.48
2018-04-30T02:01:48.579Z,52.57
2018-04-30T02:02:29.024Z,52.86
2018-04-30T02:03:10.437Z,52.86
2018-04-30T02:03:50.937Z,52.95
2018-04-30T02:04:30.597Z,52.86
2018-04-30T02:05:12.755Z,52.86
2018-04-30T02:05:53.862Z,52.57
2018-04-30T02:06:34.375Z,52.86
2018-04-30T02:07:14.910Z,52.76
2018-04-30T02:07:55.435Z,52.86
2018-04-30T02:08:35.975Z,52.86
2018-04-30T02:09:16.484Z,52.57
2018-04-30T02:09:57.015Z,52.57
2018-04-30T02:10:37.543Z,52.76
2018-04-30T02:11:18.570Z,52.57
2018-04-30T02:11:59.097Z,52.57
2018-04-30T02:12:39.605Z,52.57
2018-04-30T02:13:20.137Z,52.76
2018-04-30T02:14:01.610Z,52.57
2018-04-30T02:14:42.137Z,52.86
2018-04-30T02:15:22.669Z,52.86
2018-04-30T02:16:03.202Z,52.57
2018-04-30T02:16:43.722Z,52.86
2018-04-30T02:17:24.248Z,52.86
2018-04-30T02:18:04.787Z,52.57
2018-04-30T02:18:45.312Z,52.67
2018-04-30T02:19:25.845Z,52.76
2018-04-30T02:20:06.371Z,52.76
2018-04-30T02:20:46.900Z,52.76
2018-04-30T02:21:27.432Z,52.76
2018-04-30T02:22:07.969Z,52.76
2018-04-30T02:22:48.501Z,52.67
2018-04-30T02:23:29.031Z,52.95
2018-04-30T02:24:09.559Z,52.95
2018-04-30T02:24:50.090Z,52.76
2018-04-30T02:25:30.621Z,52.86
2018-04-30T02:26:11.139Z,52.86
2018-04-30T02:26:51.650Z,52.76
2018-04-30T02:27:32.180Z,52.76
2018-04-30T02:28:12.718Z,52.76
2018-04-30T02:28:53.249Z,52.86
2018-04-30T02:29:33.781Z,52.76
2018-04-30T02:30:14.302Z,52.86
2018-04-30T02:30:54.832Z,52.95
2018-04-30T02:31:35.377Z,52.95
2018-04-30T02:32:15.916Z,52.95
2018-04-30T02:32:56.441Z,52.95
2018-04-30T02:33:37.000Z,52.76
2018-04-30T02:34:17.501Z,52.76
2018-04-30T02:34:58.030Z,52.86
2018-04-30T02:35:38.805Z,52.95
2018-04-30T02:36:19.339Z,52.95
2018-04-30T02:36:59.867Z,52.86
2018-04-30T02:37:40.396Z,52.95
2018-04-30T02:38:20.985Z,52.86
2018-04-30T02:39:01.462Z,52.76
2018-04-30T02:39:41.987Z,52.76
2018-04-30T02:40:22.516Z,52.86
2018-04-30T02:41:03.027Z,52.86
2018-04-30T02:41:43.550Z,52.86
2018-04-30T02:42:24.086Z,52.57
2018-04-30T02:43:04.621Z,52.67
2018-04-30T02:43:45.151Z,52.48
2018-04-30T02:44:25.684Z,52.48
2018-04-30T02:45:06.201Z,52.48
2018-04-30T02:45:46.731Z,52.57
2018-04-30T02:46:27.270Z,52.76
2018-04-30T02:47:08.447Z,52.76
2018-04-30T02:47:48.318Z,52.76
2018-04-30T02:48:28.852Z,52.86
2018-04-30T02:49:09.380Z,52.76
2018-04-30T02:49:49.905Z,52.57
2018-04-30T02:50:30.946Z,52.38
2018-04-30T02:51:10.950Z,52.57
2018-04-30T02:51:51.480Z,52.57
2018-04-30T02:52:31.999Z,52.48
2018-04-30T02:53:12.563Z,52.48
2018-04-30T02:53:53.125Z,52.95
2018-04-30T02:54:33.561Z,52.86
2018-04-30T02:55:14.103Z,52.86
2018-04-30T02:55:54.624Z,52.86
2018-04-30T02:56:35.156Z,52.76
2018-04-30T02:57:19.446Z,52.76
2018-04-30T02:57:59.044Z,52.86
2018-04-30T02:58:39.575Z,52.76
2018-04-30T02:59:20.102Z,52.86
2018-04-30T03:00:00.659Z,52.38
2018-04-30T03:00:41.141Z,52.48
2018-04-30T03:01:21.693Z,52.4
2018-04-30T03:02:02.560Z,52.19
2018-04-30T03:02:43.048Z,52.31
2018-04-30T03:03:23.575Z,52.22
2018-04-30T03:04:04.131Z,52.02
2018-04-30T03:04:44.662Z,52.31
2018-04-30T03:05:25.189Z,51.93
2018-04-30T03:06:05.795Z,52.12
2018-04-30T03:06:46.423Z,52.12
2018-04-30T03:07:27.109Z,52.12
2018-04-30T03:08:07.931Z,52.12
2018-04-30T03:08:49.151Z,51.73
2018-04-30T03:09:30.306Z,51.93
2018-04-30T03:10:12.000Z,51.83
2018-04-30T03:10:51.829Z,51.93
2018-04-30T03:11:32.399Z,51.93
2018-04-30T03:12:12.949Z,51.93
2018-04-30T03:12:53.467Z,52.12
2018-04-30T03:13:33.995Z,51.83
2018-04-30T03:14:15.448Z,51.83
2018-04-30T03:14:55.056Z,51.73
2018-04-30T03:15:36.468Z,52.02
2018-04-30T03:16:16.109Z,52.12
2018-04-30T03:16:56.634Z,52.12
2018-04-30T03:17:37.163Z,52.02
2018-04-30T03:18:17.697Z,52.12
2018-04-30T03:18:58.225Z,52.12
2018-04-30T03:19:38.767Z,52.12
2018-04-30T03:20:19.294Z,52.22
2018-04-30T03:20:59.812Z,52.31
2018-04-30T03:21:40.346Z,52.31
2018-04-30T03:22:20.866Z,52.24
2018-04-30T03:23:01.395Z,52.14
2018-04-30T03:23:41.925Z,52.43
2018-04-30T03:24:22.454Z,52.12
2018-04-30T03:25:02.991Z,52.31
2018-04-30T03:25:43.520Z,52.22
2018-04-30T03:26:24.033Z,52.12
2018-04-30T03:27:04.565Z,52.12
2018-04-30T03:27:45.106Z,52.4
2018-04-30T03:28:25.636Z,52.31
2018-04-30T03:29:06.279Z,52.6
2018-04-30T03:29:46.831Z,52.79
2018-04-30T03:30:27.364Z,52.79
2018-04-30T03:31:07.883Z,52.79
2018-04-30T03:31:48.430Z,52.6
2018-04-30T03:32:29.116Z,52.5
2018-04-30T03:33:10.287Z,53.17
2018-04-30T03:33:50.862Z,53.08
2018-04-30T03:34:31.379Z,52.89
2018-04-30T03:35:11.911Z,52.79
2018-04-30T03:35:52.436Z,52.98
2018-04-30T03:36:32.963Z,52.98
2018-04-30T03:37:13.476Z,52.79
2018-04-30T03:37:54.011Z,52.79
2018-04-30T03:38:34.538Z,52.69
2018-04-30T03:39:15.068Z,52.79
2018-04-30T03:39:55.599Z,53.17
2018-04-30T03:40:37.956Z,52.89
2018-04-30T03:41:18.276Z,52.89
2018-04-30T03:41:58.317Z,52.69
2018-04-30T03:42:38.848Z,53.17
2018-04-30T03:43:19.378Z,53.08
2018-04-30T03:43:59.903Z,53.17
2018-04-30T03:44:40.431Z,52.79
2018-04-30T03:45:20.964Z,53.36
2018-04-30T03:46:01.494Z,53.27
2018-04-30T03:46:42.018Z,53.27
2018-04-30T03:47:22.547Z,53.27
2018-04-30T03:48:03.078Z,53.36
2018-04-30T03:48:43.600Z,53.27
2018-04-30T03:49:24.126Z,53.27
2018-04-30T03:50:04.657Z,53.24
2018-04-30T03:50:45.170Z,53.05
2018-04-30T03:51:25.701Z,53.15
2018-04-30T03:52:06.226Z,52.86
2018-04-30T03:52:46.752Z,53.05
2018-04-30T03:53:27.299Z,53.05
2018-04-30T03:54:07.822Z,53.24
2018-04-30T03:54:48.347Z,53.24
2018-04-30T03:55:28.875Z,53.15
2018-04-30T03:56:09.791Z,53.24
2018-04-30T03:56:50.328Z,52.95
2018-04-30T03:57:30.865Z,53.34
2018-04-30T03:58:11.390Z,53.34
2018-04-30T03:58:51.908Z,53.05
2018-04-30T03:59:32.409Z,52.95
2018-04-30T04:00:12.904Z,53.24
2018-04-30T04:00:53.434Z,53.24
2018-04-30T04:01:33.967Z,53.44
2018-04-30T04:02:14.492Z,53.15
2018-04-30T04:02:55.020Z,53.24
2018-04-30T04:03:39.763Z,53.24
2018-04-30T04:06:28.872Z,53.24
2018-04-30T04:07:09.398Z,53.34
2018-04-30T04:07:49.924Z,53.31
2018-04-30T04:08:30.456Z,53.05
2018-04-30T04:09:10.988Z,53.34
2018-04-30T04:09:51.558Z,53.22
2018-04-30T04:10:32.036Z,53.22
2018-04-30T04:11:12.564Z,53.22
2018-04-30T04:11:53.097Z,53.6
2018-04-30T04:12:33.619Z,53.5
2018-04-30T04:13:16.850Z,53.41
2018-04-30T04:13:57.371Z,53.79
2018-04-30T04:14:37.898Z,53.5
2018-04-30T04:15:18.419Z,53.5
2018-04-30T04:15:58.951Z,53.6
2018-04-30T04:16:40.357Z,53.79
2018-04-30T04:17:20.891Z,53.7
2018-04-30T04:18:01.410Z,53.6
2018-04-30T04:18:42.906Z,53.5
2018-04-30T04:19:22.446Z,53.7
2018-04-30T04:20:02.973Z,53.5
2018-04-30T04:20:43.498Z,53.41
2018-04-30T04:21:24.026Z,53.48
2018-04-30T04:22:04.556Z,53.58
2018-04-30T04:22:45.064Z,53.48
2018-04-30T04:23:25.595Z,53.48
2018-04-30T04:24:06.107Z,53.28
2018-04-30T04:24:46.628Z,53.28
2018-04-30T04:25:27.155Z,53.48
2018-04-30T04:26:07.676Z,53.38
2018-04-30T04:26:48.206Z,53.48
2018-04-30T04:27:28.736Z,53.58
2018-04-30T04:28:09.831Z,53.48
2018-04-30T04:28:50.346Z,53.38
2018-04-30T04:29:31.673Z,53.48
2018-04-30T04:30:12.195Z,53.48
2018-04-30T04:30:52.752Z,53.58
2018-04-30T04:31:33.968Z,53.67
2018-04-30T04:32:14.494Z,53.67
2018-04-30T04:32:55.028Z,53.67
2018-04-30T04:33:35.564Z,53.48
2018-04-30T04:34:16.100Z,53.64
2018-04-30T04:34:56.628Z,53.93
2018-04-30T04:35:37.158Z,54.22
2018-04-30T04:36:17.681Z,53.45
2018-04-30T04:36:58.225Z,53.83
2018-04-30T04:37:38.759Z,54.12
2018-04-30T04:38:19.289Z,54.03
2018-04-30T04:38:59.809Z,54.03
2018-04-30T04:39:40.336Z,53.83
2018-04-30T04:40:20.871Z,53.83
2018-04-30T04:41:01.406Z,53.93
2018-04-30T04:41:41.968Z,53.74
2018-04-30T04:42:22.459Z,53.74
2018-04-30T04:43:03.912Z,53.36
2018-04-30T04:43:43.506Z,53.55
2018-04-30T04:44:24.039Z,53.55
2018-04-30T04:45:04.566Z,53.64
2018-04-30T04:45:45.088Z,53.55
2018-04-30T04:46:25.623Z,53.45
2018-04-30T04:47:06.148Z,53.55
2018-04-30T04:47:46.672Z,53.55
2018-04-30T04:48:27.203Z,53.45
2018-04-30T04:49:07.723Z,53.45
2018-04-30T04:49:48.259Z,53.45
2018-04-30T04:50:28.794Z,53.45
2018-04-30T04:51:09.318Z,53.52
2018-04-30T04:51:49.842Z,53.62
2018-04-30T04:52:30.923Z,53.42
2018-04-30T04:53:10.894Z,54.1
2018-04-30T04:53:51.417Z,54
2018-04-30T04:54:32.913Z,54
2018-04-30T04:55:12.467Z,53.71
2018-04-30T04:55:53.000Z,53.91
2018-04-30T04:56:33.521Z,53.91
2018-04-30T04:57:14.046Z,53.81
2018-04-30T04:57:54.585Z,53.91
2018-04-30T04:58:35.119Z,53.91
2018-04-30T04:59:15.642Z,53.91
2018-04-30T04:59:56.173Z,53.91
2018-04-30T05:00:36.700Z,53.69
2018-04-30T05:01:17.223Z,53.97
2018-04-30T05:01:57.756Z,53.88
2018-04-30T05:02:38.283Z,53.71
2018-04-30T05:03:19.690Z,53.69
2018-04-30T05:04:00.218Z,53.62
2018-04-30T05:04:40.746Z,53.69
2018-04-30T05:05:21.273Z,53.88
2018-04-30T05:06:01.813Z,53.49
2018-04-30T05:06:42.347Z,54.07
2018-04-30T05:07:22.872Z,53.59
2018-04-30T05:08:03.390Z,54.16
2018-04-30T05:08:43.920Z,54.16
2018-04-30T05:09:24.447Z,54.07
2018-04-30T05:10:04.977Z,53.97
2018-04-30T05:10:45.500Z,53.88
2018-04-30T05:11:26.020Z,54.45
2018-04-30T05:12:06.554Z,54.36
2018-04-30T05:12:47.114Z,54.55
2018-04-30T05:13:27.632Z,54.55
2018-04-30T05:14:08.154Z,54.55
2018-04-30T05:14:48.680Z,54.26
2018-04-30T05:15:29.214Z,54.33
2018-04-30T05:16:09.751Z,54.61
2018-04-30T05:16:50.275Z,54.33
2018-04-30T05:17:30.810Z,54.52
2018-04-30T05:18:11.334Z,54.33
2018-04-30T05:18:51.866Z,54.43
2018-04-30T05:19:32.389Z,54.33
2018-04-30T05:20:12.909Z,54.61
2018-04-30T05:20:53.525Z,54.43
2018-04-30T05:21:33.954Z,54.23
2018-04-30T05:22:14.473Z,54.33
2018-04-30T05:22:55.001Z,54.43
2018-04-30T05:23:35.527Z,54.52
2018-04-30T05:24:16.877Z,54.43
2018-04-30T05:24:57.407Z,54.52
2018-04-30T05:25:37.934Z,54.43
2018-04-30T05:26:18.457Z,54.43
2018-04-30T05:26:58.982Z,54.43
2018-04-30T05:27:39.509Z,54.23
2018-04-30T05:28:20.035Z,54.14
2018-04-30T05:29:00.565Z,54.23
2018-04-30T05:29:41.092Z,54.23
2018-04-30T05:30:21.617Z,54.52
2018-04-30T05:31:02.136Z,54.52
2018-04-30T05:31:42.661Z,54.43
2018-04-30T05:32:23.194Z,54.43
2018-04-30T05:33:03.719Z,54.33
2018-04-30T05:33:44.250Z,54.33
2018-04-30T05:34:24.833Z,54.52
2018-04-30T05:35:05.366Z,54.52
2018-04-30T05:35:45.888Z,54.33
2018-04-30T05:36:26.414Z,54.33
2018-04-30T05:37:06.942Z,53.85
2018-04-30T05:37:47.470Z,54.04
2018-04-30T05:38:28.262Z,53.85
2018-04-30T05:39:08.794Z,54.04
2018-04-30T05:39:49.309Z,54.04
2018-04-30T05:40:29.838Z,53.85
2018-04-30T05:41:10.374Z,54.04
2018-04-30T05:41:50.902Z,53.94
2018-04-30T05:42:31.432Z,53.94
2018-04-30T05:43:11.955Z,54.14
2018-04-30T05:43:52.485Z,53.94
2018-04-30T05:44:33.012Z,54.04
2018-04-30T05:45:13.548Z,54.04
2018-04-30T05:45:54.057Z,54.14
2018-04-30T05:46:34.581Z,54.04
2018-04-30T05:47:15.112Z,53.85
2018-04-30T05:47:55.706Z,54.04
2018-04-30T05:48:36.152Z,54.33
2018-04-30T05:49:16.679Z,54.43
2018-04-30T05:49:57.214Z,54.52
2018-04-30T05:50:37.751Z,54.43
2018-04-30T05:51:18.921Z,54.04
2018-04-30T05:51:58.798Z,54.23
2018-04-30T05:52:39.319Z,54.23
2018-04-30T05:53:19.805Z,54.23
2018-04-30T05:54:00.327Z,54.04
2018-04-30T05:54:40.853Z,54.33
2018-04-30T05:55:21.423Z,54.49
2018-04-30T05:56:02.419Z,54.33
2018-04-30T05:56:42.421Z,53.82
2018-04-30T05:57:22.923Z,54.02
2018-04-30T05:58:03.465Z,54.02
2018-04-30T05:58:43.978Z,54.21
2018-04-30T05:59:24.488Z,54.49
2018-04-30T06:00:04.953Z,54.21
2018-04-30T06:00:45.462Z,54.39
2018-04-30T06:01:25.947Z,54.39
2018-04-30T06:02:06.473Z,54.39
2018-04-30T06:02:46.948Z,54.39
2018-04-30T06:03:27.477Z,54.02
2018-04-30T06:04:07.983Z,54.02
2018-04-30T06:04:48.487Z,54.3
2018-04-30T06:05:29.023Z,54.11
2018-04-30T06:06:09.529Z,54.3
2018-04-30T06:06:50.074Z,54.3
2018-04-30T06:07:30.496Z,54.11
2018-04-30T06:08:11.032Z,54.21
2018-04-30T06:08:51.554Z,54.49
2018-04-30T06:09:32.060Z,54.39
2018-04-30T06:10:12.577Z,54.3
2018-04-30T06:10:53.924Z,54.21
2018-04-30T06:11:34.476Z,54.02
2018-04-30T06:12:15.098Z,53.73
2018-04-30T06:12:55.625Z,53.94
2018-04-30T06:13:36.057Z,53.66
2018-04-30T06:14:16.642Z,53.47
2018-04-30T06:14:57.045Z,53.37
2018-04-30T06:15:37.524Z,53.18
2018-04-30T06:16:18.004Z,53.08
2018-04-30T06:16:58.507Z,53.08
2018-04-30T06:17:39.019Z,53.47
2018-04-30T06:18:19.486Z,53.56
2018-04-30T06:19:00.670Z,53.56
2018-04-30T06:19:41.153Z,53.37
2018-04-30T06:20:21.655Z,53.18
2018-04-30T06:21:02.163Z,53.18
2018-04-30T06:21:42.679Z,53.47
2018-04-30T06:22:23.144Z,53.37
2018-04-30T06:23:03.659Z,53.56
2018-04-30T06:23:44.130Z,53.56
2018-04-30T06:24:25.426Z,53.56
2018-04-30T06:25:05.103Z,53.37
2018-04-30T06:25:45.580Z,54.04
2018-04-30T06:26:26.084Z,53.37
2018-04-30T06:27:06.577Z,53.94
2018-04-30T06:27:47.098Z,53.56
2018-04-30T06:28:27.579Z,53.47
2018-04-30T06:29:08.096Z,53.66
2018-04-30T06:29:48.576Z,53.47
2018-04-30T06:30:30.576Z,53.11
2018-04-30T06:31:11.097Z,53.11
2018-04-30T06:31:51.575Z,53.11
2018-04-30T06:32:32.039Z,52.63
2018-04-30T06:33:12.637Z,52.83
2018-04-30T06:33:53.124Z,52.63
2018-04-30T06:34:33.652Z,52.73
2018-04-30T06:35:14.118Z,52.54
2018-04-30T06:35:54.778Z,52.63
2018-04-30T06:36:35.138Z,53.11
2018-04-30T06:37:15.626Z,53.11
2018-04-30T06:37:56.116Z,52.92
2018-04-30T06:38:36.630Z,53.2
2018-04-30T06:39:17.121Z,53.3
2018-04-30T06:39:57.635Z,53.11
2018-04-30T06:40:39.866Z,53.02
2018-04-30T06:41:20.327Z,53.02
2018-04-30T06:42:00.847Z,53.2
2018-04-30T06:42:42.560Z,53.02
2018-04-30T06:43:23.086Z,53.11
2018-04-30T06:44:03.591Z,53.2
2018-04-30T06:44:44.039Z,53.02
2018-04-30T06:45:24.549Z,53.2
2018-04-30T06:46:05.058Z,52.92
2018-04-30T06:46:45.534Z,53.2
2018-04-30T06:47:26.105Z,53.2
2018-04-30T06:48:06.541Z,52.83
2018-04-30T06:48:47.050Z,53.11
2018-04-30T06:49:27.504Z,53.11
2018-04-30T06:50:08.001Z,53.11
2018-04-30T06:50:48.510Z,53.2
2018-04-30T06:51:29.026Z,53.3
2018-04-30T06:52:10.052Z,53.2
2018-04-30T06:52:50.555Z,53.23
2018-04-30T06:53:31.039Z,52.95
2018-04-30T06:54:11.544Z,53.14
2018-04-30T06:54:52.024Z,53.04
2018-04-30T06:55:32.554Z,52.66
2018-04-30T06:56:13.247Z,52.95
2018-04-30T06:56:53.746Z,52.75
2018-04-30T06:57:34.228Z,52.85
2018-04-30T06:58:14.772Z,52.66
2018-04-30T06:58:55.253Z,52.56
2018-04-30T06:59:35.768Z,52.56
2018-04-30T07:00:16.272Z,52.56
2018-04-30T07:00:56.722Z,52.95
2018-04-30T07:01:37.210Z,53.04
2018-04-30T07:02:17.712Z,53.23
2018-04-30T07:02:58.215Z,53.04
2018-04-30T07:03:38.757Z,52.92
2018-04-30T07:04:19.210Z,53.14
2018-04-30T07:04:59.671Z,53.11
2018-04-30T07:05:40.158Z,53.11
2018-04-30T07:06:20.671Z,53.62
2018-04-30T07:07:01.166Z,53.3
2018-04-30T07:07:41.676Z,53.59
2018-04-30T07:08:22.159Z,53.3
2018-04-30T07:09:02.777Z,53.2
2018-04-30T07:09:43.464Z,53.3
2018-04-30T07:10:23.703Z,53.59
2018-04-30T07:11:04.151Z,53.49
2018-04-30T07:11:45.195Z,54.07
2018-04-30T07:12:25.661Z,53.69
2018-04-30T07:13:06.158Z,53.69
2018-04-30T07:13:46.623Z,53.78
2018-04-30T07:14:27.132Z,53.88
2018-04-30T07:15:07.637Z,53.59
2018-04-30T07:15:48.119Z,53.59
2018-04-30T07:16:28.654Z,54.07
2018-04-30T07:17:09.156Z,54.07
2018-04-30T07:17:49.724Z,54.04
2018-04-30T07:18:30.176Z,54.43
2018-04-30T07:19:10.674Z,54.04
2018-04-30T07:19:51.250Z,54.33
2018-04-30T07:20:31.690Z,54.23
2018-04-30T07:21:12.202Z,54.33
2018-04-30T07:21:52.656Z,54.33
2018-04-30T07:22:33.181Z,54.52
2018-04-30T07:23:13.635Z,54.52
2018-04-30T07:23:54.178Z,54.33
2018-04-30T07:24:34.655Z,54.52
2018-04-30T07:25:15.161Z,54.43
2018-04-30T07:25:55.657Z,54.52
2018-04-30T07:26:36.163Z,54.23
2018-04-30T07:27:16.639Z,54.33
2018-04-30T07:27:57.170Z,54.43
2018-04-30T07:28:37.668Z,53.75
2018-04-30T07:29:18.115Z,53.47
2018-04-30T07:29:58.639Z,53.66
2018-04-30T07:30:39.158Z,53.85
2018-04-30T07:31:19.630Z,53.97
2018-04-30T07:32:00.110Z,53.4
2018-04-30T07:32:40.623Z,53.59
2018-04-30T07:33:21.117Z,52.92
2018-04-30T07:34:02.218Z,53.11
2018-04-30T07:34:42.692Z,53.3
2018-04-30T07:35:23.242Z,52.75
2018-04-30T07:36:03.717Z,52.85
2018-04-30T07:36:44.215Z,51.79
2018-04-30T07:37:25.293Z,51.25
2018-04-30T07:38:05.777Z,50.6
2018-04-30T07:38:46.284Z,50.12
2018-04-30T07:39:26.761Z,49.38
2018-04-30T07:40:07.271Z,49.31
2018-04-30T07:40:47.773Z,48.66
2018-04-30T07:41:28.231Z,47.8
2018-04-30T07:42:08.730Z,47.72
2018-04-30T07:42:49.272Z,47.36
2018-04-30T07:43:29.745Z,46.98
2018-04-30T07:44:10.194Z,46.89
2018-04-30T07:44:50.684Z,47.17
2018-04-30T07:45:31.196Z,46.45
2018-04-30T07:46:11.658Z,45.25
2018-04-30T07:46:52.166Z,44.21
2018-04-30T07:47:32.650Z,42.83
2018-04-30T07:48:13.138Z,41.52
2018-04-30T07:48:53.630Z,40.67
2018-04-30T07:49:34.147Z,39.94
2018-04-30T07:50:14.637Z,39.64
2018-04-30T07:50:55.133Z,39.94
2018-04-30T07:51:35.617Z,40.71
2018-04-30T07:52:16.109Z,40.9
2018-04-30T07:52:56.635Z,40.46
2018-04-30T07:53:37.126Z,40.46
2018-04-30T07:54:17.641Z,40.46
2018-04-30T07:54:58.092Z,40.77
2018-04-30T07:55:38.596Z,40.67
2018-04-30T07:56:19.111Z,40.58
2018-04-30T07:57:00.438Z,40.59
2018-04-30T07:57:40.092Z,41.45
2018-04-30T07:58:20.535Z,41.25
2018-04-30T07:59:01.059Z,41.55
2018-04-30T07:59:41.541Z,41.55
2018-04-30T08:00:22.090Z,41.86
2018-04-30T08:01:02.554Z,40.48
2018-04-30T08:01:43.067Z,39.12
2018-04-30T08:02:23.539Z,39.14
2018-04-30T08:03:04.138Z,36.65
2018-04-30T08:03:44.539Z,35.02
2018-04-30T08:04:25.017Z,34.83
2018-04-30T08:05:05.569Z,32.99
2018-04-30T08:05:46.098Z,30.5
2018-04-30T08:06:26.629Z,31.07
2018-04-30T08:07:07.133Z,31.96
2018-04-30T08:07:47.627Z,29.72
2018-04-30T08:08:28.088Z,26.6
2018-04-30T08:09:08.587Z,24.31
2018-04-30T08:09:49.113Z,23.96
2018-04-30T08:10:29.631Z,22.33
2018-04-30T08:11:10.081Z,21.39
2018-04-30T08:11:51.538Z,21.12
2018-04-30T08:12:32.003Z,20.47
2018-04-30T08:13:12.511Z,20.21
2018-04-30T08:13:53.946Z,19.73
2018-04-30T08:14:33.549Z,19.46
2018-04-30T08:15:14.080Z,18.89
2018-04-30T08:15:54.613Z,18.52
2018-04-30T08:16:35.148Z,18.15
2018-04-30T08:17:15.684Z,17.87
2018-04-30T08:17:56.231Z,17.5
2018-04-30T08:18:36.770Z,17.32
2018-04-30T08:19:17.313Z,16.72
2018-04-30T08:19:57.850Z,17.82
2018-04-30T08:20:38.386Z,18.61
2018-04-30T08:21:18.926Z,20.78
2018-04-30T08:21:59.464Z,20.03
2018-04-30T08:22:40.001Z,19.92
2018-04-30T08:23:20.541Z,18.96
2018-04-30T08:24:01.082Z,19.94
2018-04-30T08:24:41.625Z,22.28
2018-04-30T08:25:22.926Z,21.45
2018-04-30T08:26:03.458Z,22.6
2018-04-30T08:26:43.999Z,24.82
2018-04-30T08:27:24.542Z,23.11
2018-04-30T08:28:05.078Z,21.06
2018-04-30T08:28:45.622Z,23.47
2018-04-30T08:29:26.156Z,25.15
2018-04-30T08:30:06.696Z,24.09
2018-04-30T08:30:47.235Z,22.81
2018-04-30T08:31:27.780Z,21.83
2018-04-30T08:32:08.321Z,22.24
2018-04-30T08:32:49.190Z,22.33
2018-04-30T08:33:29.741Z,24.19
2018-04-30T08:34:10.276Z,23.89
2018-04-30T08:34:50.827Z,25.54
2018-04-30T08:35:31.379Z,27.86
2018-04-30T08:36:11.921Z,28.44
2018-04-30T08:36:52.456Z,25.94
2018-04-30T08:37:32.995Z,24.74
2018-04-30T08:38:13.539Z,22.23
2018-04-30T08:38:54.077Z,20.36
2018-04-30T08:39:34.619Z,21.26
2018-04-30T08:40:15.146Z,21.05
2018-04-30T08:40:57.964Z,22.14
2018-04-30T08:41:37.867Z,23.86
2018-04-30T08:42:18.403Z,21.94
2018-04-30T08:42:58.936Z,24.66
2018-04-30T08:43:39.469Z,26.89
2018-04-30T08:44:20.008Z,29.41
2018-04-30T08:45:00.620Z,31.02
2018-04-30T08:45:41.091Z,27.49